createdAt,value
2022-08-16T00:03:13.667Z,19.59
2022-08-16T00:06:18.632Z,19.56
2022-08-16T00:09:24.889Z,19.52
2022-08-16T00:12:31.970Z,19.40
2022-08-16T00:15:50.906Z,19.32
2022-08-16T00:18:56.181Z,19.31
2022-08-16T00:22:06.807Z,19.28
2022-08-16T00:26:35.717Z,19.23
2022-08-16T00:28:46.174Z,19.07
2022-08-16T00:31:59.624Z,18.97
2022-08-16T00:35:13.268Z,18.91
2022-08-16T00:38:40.353Z,18.88
2022-08-16T00:41:46.852Z,18.89
2022-08-16T00:44:57.541Z,18.91
2022-08-16T00:48:04.393Z,18.94
2022-08-16T00:51:29.766Z,18.96
2022-08-16T00:54:33.942Z,18.98
2022-08-16T00:57:59.205Z,18.95
2022-08-16T01:01:03.398Z,18.91
2022-08-16T01:04:29.569Z,18.91
2022-08-16T01:07:51.020Z,18.88
2022-08-16T01:10:59.840Z,18.83
2022-08-16T01:14:14.099Z,18.74
2022-08-16T01:17:25.060Z,18.73
2022-08-16T01:20:36.574Z,18.64
2022-08-16T01:24:53.314Z,18.61
2022-08-16T01:27:43.929Z,18.57
2022-08-16T01:30:53.789Z,18.50
2022-08-16T01:33:57.959Z,18.46
2022-08-16T01:37:05.240Z,18.38
2022-08-16T01:40:13.564Z,18.33
2022-08-16T01:43:20.679Z,18.32
2022-08-16T01:46:39.594Z,18.35
2022-08-16T01:50:41.265Z,18.39
2022-08-16T01:53:10.080Z,18.41
2022-08-16T01:56:24.485Z,18.40
2022-08-16T01:59:30.768Z,18.44
2022-08-16T02:02:34.603Z,18.44
2022-08-16T02:05:51.765Z,18.48
2022-08-16T02:08:56.438Z,18.51
2022-08-16T02:12:49.406Z,18.49
2022-08-16T02:15:35.308Z,18.55
2022-08-16T02:18:40.226Z,18.49
2022-08-16T02:22:09.034Z,18.47
2022-08-16T02:25:15.065Z,18.50
2022-08-16T02:28:23.570Z,18.54
2022-08-16T02:32:03.558Z,18.54
2022-08-16T02:34:51.346Z,18.52
2022-08-16T02:38:01.719Z,18.50
2022-08-16T02:41:12.415Z,18.52
2022-08-16T02:44:19.436Z,18.52
2022-08-16T02:47:25.097Z,18.57
2022-08-16T02:50:53.705Z,18.60
2022-08-16T02:53:53.515Z,18.64
2022-08-16T02:56:57.149Z,18.67
2022-08-16T03:00:33.783Z,18.68
2022-08-16T03:04:39.885Z,18.64
2022-08-16T03:06:56.393Z,18.63
2022-08-16T03:10:00.933Z,18.62
2022-08-16T03:13:12.563Z,18.58
2022-08-16T03:16:32.920Z,18.57
2022-08-16T03:19:47.139Z,18.49
2022-08-16T03:23:00.156Z,18.40
2022-08-16T03:26:06.066Z,18.34
2022-08-16T03:29:12.103Z,18.30
2022-08-16T03:32:17.531Z,18.23
2022-08-16T03:35:33.087Z,18.20
2022-08-16T03:38:38.051Z,18.19
2022-08-16T03:41:50.661Z,18.17
2022-08-16T03:45:03.903Z,18.16
2022-08-16T03:48:14.882Z,18.14
2022-08-16T03:51:23.593Z,18.13
2022-08-16T03:54:29.402Z,18.12
2022-08-16T03:57:36.287Z,18.12
2022-08-16T04:00:41.399Z,18.12
2022-08-16T04:03:46.599Z,18.12
2022-08-16T04:06:50.284Z,18.10
2022-08-16T04:09:54.931Z,18.12
2022-08-16T04:13:04.698Z,18.09
2022-08-16T04:16:27.470Z,18.11
2022-08-16T04:19:34.929Z,18.08
2022-08-16T04:22:39.865Z,17.99
2022-08-16T04:25:47.101Z,17.92
2022-08-16T04:28:53.568Z,17.94
2022-08-16T04:32:01.082Z,17.95
2022-08-16T04:35:15.061Z,17.96
2022-08-16T04:38:21.196Z,17.96
2022-08-16T04:41:32.675Z,17.94
2022-08-16T04:44:54.140Z,17.99
2022-08-16T04:48:00.116Z,18.15
2022-08-16T04:51:12.290Z,18.08
2022-08-16T04:54:19.498Z,18.10
2022-08-16T04:57:23.220Z,18.19
2022-08-16T05:00:34.032Z,18.30
2022-08-16T05:03:41.870Z,18.35
2022-08-16T05:07:03.208Z,18.36
2022-08-16T05:10:19.647Z,18.44
2022-08-16T05:13:40.753Z,18.47
2022-08-16T05:16:45.746Z,18.56
2022-08-16T05:19:57.638Z,18.58
2022-08-16T05:23:03.494Z,18.65
2022-08-16T05:26:19.586Z,18.88
2022-08-16T05:29:24.885Z,18.97
2022-08-16T05:32:48.311Z,19.18
2022-08-16T05:35:55.968Z,19.18
2022-08-16T05:39:03.634Z,19.26
2022-08-16T05:42:08.240Z,19.38
2022-08-16T05:45:12.884Z,19.47
2022-08-16T05:48:27.009Z,19.50
2022-08-16T05:51:38.675Z,19.42
2022-08-16T05:54:58.579Z,19.48
2022-08-16T05:58:05.765Z,19.59
2022-08-16T06:01:09.858Z,19.68
2022-08-16T06:04:34.570Z,19.79
2022-08-16T06:07:42.612Z,19.83
2022-08-16T06:11:05.618Z,19.86
2022-08-16T06:14:21.132Z,20.01
2022-08-16T06:17:43.219Z,20.18
2022-08-16T06:20:55.846Z,20.37
2022-08-16T06:24:01.475Z,20.49
2022-08-16T06:27:27.135Z,20.51
2022-08-16T06:30:45.205Z,20.73
2022-08-16T06:33:51.857Z,20.78
2022-08-16T06:36:59.336Z,20.82
2022-08-16T06:40:04.195Z,20.94
2022-08-16T06:43:09.271Z,21.14
2022-08-16T06:46:31.607Z,21.11
2022-08-16T06:49:35.810Z,21.39
2022-08-16T06:53:00.008Z,21.38
2022-08-16T06:56:05.994Z,21.93
2022-08-16T06:59:11.348Z,22.36
2022-08-16T07:02:32.909Z,22.37
2022-08-16T07:05:41.714Z,22.06
2022-08-16T07:08:46.548Z,22.26
2022-08-16T07:11:51.932Z,22.39
2022-08-16T07:15:00.735Z,22.53
2022-08-16T07:18:05.582Z,22.25
2022-08-16T07:21:10.051Z,22.37
2022-08-16T07:24:29.844Z,22.54
2022-08-16T07:27:37.263Z,22.72
2022-08-16T07:30:46.263Z,22.73
2022-08-16T07:33:53.203Z,22.82
2022-08-16T07:36:59.075Z,22.98
2022-08-16T07:40:11.145Z,22.78
2022-08-16T07:43:15.368Z,22.98
2022-08-16T07:46:39.277Z,23.02
2022-08-16T07:49:52.918Z,23.10
2022-08-16T07:52:57.269Z,23.29
2022-08-16T07:56:04.668Z,23.37
2022-08-16T07:59:09.785Z,23.50
2022-08-16T08:02:20.513Z,23.40
2022-08-16T08:05:35.526Z,23.67
2022-08-16T08:08:51.298Z,23.71
2022-08-16T08:12:00.864Z,23.78
2022-08-16T08:15:09.675Z,23.62
2022-08-16T08:18:30.631Z,23.60
2022-08-16T08:22:00.944Z,23.75
2022-08-16T08:25:03.563Z,23.83
2022-08-16T08:28:10.950Z,24.29
2022-08-16T08:31:16.233Z,24.57
2022-08-16T08:34:25.872Z,25.21
2022-08-16T08:37:54.324Z,25.50
2022-08-16T08:40:53.801Z,25.61
2022-08-16T08:43:58.882Z,25.77
2022-08-16T08:47:10.942Z,25.74
2022-08-16T08:50:31.569Z,25.77
2022-08-16T08:53:37.061Z,26.04
2022-08-16T08:56:45.822Z,26.43
2022-08-16T08:59:49.924Z,26.21
2022-08-16T09:02:57.719Z,26.07
2022-08-16T09:06:03.923Z,25.50
2022-08-16T09:09:09.620Z,25.48
2022-08-16T09:12:36.190Z,25.24
2022-08-16T09:15:41.358Z,25.53
2022-08-16T09:18:45.653Z,25.45
2022-08-16T09:21:56.239Z,25.42
2022-08-16T09:25:11.321Z,25.16
2022-08-16T09:29:13.311Z,25.38
2022-08-16T09:31:41.938Z,25.41
2022-08-16T09:34:45.998Z,25.61
2022-08-16T09:38:00.404Z,25.68
2022-08-16T09:41:14.934Z,26.05
2022-08-16T09:45:12.274Z,26.31
2022-08-16T09:47:57.064Z,26.15
2022-08-16T09:51:01.821Z,26.19
2022-08-16T09:54:09.770Z,26.08
2022-08-16T09:57:13.814Z,26.05
2022-08-16T10:00:42.200Z,25.87
2022-08-16T10:04:01.801Z,25.78
2022-08-16T10:07:14.959Z,25.92
2022-08-16T10:10:31.007Z,25.89
2022-08-16T10:13:34.684Z,25.77
2022-08-16T10:16:38.886Z,25.82
2022-08-16T10:19:43.262Z,25.95
2022-08-16T10:22:47.399Z,25.71
2022-08-16T10:27:17.690Z,25.85
2022-08-16T10:29:19.945Z,25.90
2022-08-16T10:32:25.159Z,25.89
2022-08-16T10:35:34.483Z,25.99
2022-08-16T10:38:51.829Z,26.13
2022-08-16T10:41:57.198Z,26.31
2022-08-16T10:45:03.704Z,26.59
2022-08-16T10:48:27.422Z,26.76
2022-08-16T10:51:34.316Z,27.12
2022-08-16T10:54:59.574Z,27.08
2022-08-16T10:58:11.434Z,27.00
2022-08-16T11:01:40.013Z,27.05
2022-08-16T11:08:07.085Z,27.24
2022-08-16T11:11:19.096Z,27.58
2022-08-16T11:14:25.212Z,27.29
2022-08-16T11:17:32.601Z,27.11
2022-08-16T11:20:42.258Z,26.70
2022-08-16T11:23:57.483Z,26.60
2022-08-16T11:27:23.982Z,26.58
2022-08-16T11:30:37.842Z,26.61
2022-08-16T11:33:58.622Z,26.55
2022-08-16T11:37:03.942Z,26.39
2022-08-16T11:40:11.003Z,26.54
2022-08-16T11:43:18.139Z,26.53
2022-08-16T11:46:45.012Z,26.73
2022-08-16T11:49:51.268Z,27.51
2022-08-16T11:52:54.975Z,28.00
2022-08-16T11:55:58.982Z,27.88
2022-08-16T11:59:03.378Z,27.81
2022-08-16T12:02:32.378Z,28.15
2022-08-16T12:05:36.793Z,28.08
2022-08-16T12:08:47.378Z,27.76
2022-08-16T12:11:53.008Z,27.33
2022-08-16T12:14:59.861Z,27.67
2022-08-16T12:18:07.091Z,27.98
2022-08-16T12:21:14.155Z,27.73
2022-08-16T12:24:18.078Z,27.42
2022-08-16T12:27:24.139Z,27.51
2022-08-16T12:30:37.737Z,27.66
2022-08-16T12:33:44.784Z,27.80
2022-08-16T12:36:48.756Z,27.64
2022-08-16T12:39:52.998Z,27.85
2022-08-16T12:43:00.935Z,28.05
2022-08-16T12:46:04.848Z,28.08
2022-08-16T12:49:13.098Z,27.84
2022-08-16T12:52:33.196Z,28.07
2022-08-16T12:55:41.909Z,28.31
2022-08-16T12:58:51.632Z,28.06
2022-08-16T13:01:58.142Z,28.22
2022-08-16T13:05:03.710Z,28.78
2022-08-16T13:08:20.046Z,28.67
2022-08-16T13:11:37.853Z,28.26
2022-08-16T13:14:46.907Z,27.93
2022-08-16T13:17:54.049Z,27.81
2022-08-16T13:21:00.126Z,27.76
2022-08-16T13:24:04.232Z,28.09
2022-08-16T13:27:09.455Z,28.31
2022-08-16T13:30:35.343Z,28.64
2022-08-16T13:33:38.081Z,28.56
2022-08-16T13:36:49.423Z,28.31
2022-08-16T13:39:53.809Z,28.45
2022-08-16T13:42:57.844Z,28.55
2022-08-16T13:46:04.397Z,28.42
2022-08-16T13:49:08.664Z,28.28
2022-08-16T13:52:14.655Z,28.22
2022-08-16T13:55:18.418Z,28.08
2022-08-16T13:58:36.778Z,27.81
2022-08-16T14:01:47.114Z,27.75
2022-08-16T14:05:04.979Z,27.72
2022-08-16T14:08:11.212Z,27.80
2022-08-16T14:11:16.434Z,27.85
2022-08-16T14:14:20.408Z,27.71
2022-08-16T14:18:15.990Z,27.81
2022-08-16T14:20:56.655Z,27.76
2022-08-16T14:24:02.702Z,28.04
2022-08-16T14:27:12.280Z,28.72
2022-08-16T14:30:20.814Z,28.73
2022-08-16T14:33:24.507Z,28.82
2022-08-16T14:36:30.570Z,28.69
2022-08-16T14:39:36.403Z,28.18
2022-08-16T14:42:44.446Z,27.69
2022-08-16T14:45:50.384Z,27.95
2022-08-16T14:48:55.764Z,28.28
2022-08-16T14:52:03.633Z,28.18
2022-08-16T14:55:11.942Z,28.03
2022-08-16T14:58:19.580Z,27.82
2022-08-16T15:01:24.580Z,27.59
2022-08-16T15:04:49.343Z,27.43
2022-08-16T15:07:54.163Z,27.35
2022-08-16T15:10:59.112Z,27.38
2022-08-16T15:14:03.846Z,27.43
2022-08-16T15:17:08.796Z,27.35
2022-08-16T15:20:13.420Z,27.23
2022-08-16T15:23:25.121Z,27.15
2022-08-16T15:26:42.768Z,27.16
2022-08-16T15:29:52.268Z,27.07
2022-08-16T15:33:05.703Z,26.97
2022-08-16T15:36:18.555Z,26.76
2022-08-16T15:39:30.327Z,26.76
2022-08-16T15:42:54.100Z,26.66
2022-08-16T15:46:34.700Z,27.14
2022-08-16T15:49:45.888Z,27.63
2022-08-16T15:52:51.123Z,27.43
2022-08-16T15:55:55.417Z,27.37
2022-08-16T15:59:00.951Z,27.61
2022-08-16T16:02:05.134Z,27.82
2022-08-16T16:05:11.119Z,28.02
2022-08-16T16:08:24.113Z,28.34
2022-08-16T16:11:28.125Z,27.90
2022-08-16T16:14:37.585Z,27.79
2022-08-16T16:17:42.068Z,27.52
2022-08-16T16:20:49.740Z,27.45
2022-08-16T16:23:57.963Z,27.16
2022-08-16T16:27:06.652Z,27.08
2022-08-16T16:30:33.365Z,27.05
2022-08-16T16:33:43.654Z,27.12
2022-08-16T16:36:48.458Z,26.90
2022-08-16T16:39:53.002Z,26.78
2022-08-16T16:43:00.079Z,26.78
2022-08-16T16:46:42.456Z,26.65
2022-08-16T16:49:32.964Z,26.61
2022-08-16T16:52:44.006Z,26.50
2022-08-16T16:55:52.149Z,26.31
2022-08-16T16:59:01.130Z,26.32
2022-08-16T17:02:46.166Z,26.24
2022-08-16T17:05:32.607Z,26.03
2022-08-16T17:08:37.858Z,25.84
2022-08-16T17:11:46.597Z,25.87
2022-08-16T17:14:58.930Z,25.75
2022-08-16T17:19:16.358Z,25.73
2022-08-16T17:21:28.278Z,25.72
2022-08-16T17:24:39.687Z,25.59
2022-08-16T17:27:43.827Z,25.48
2022-08-16T17:30:55.022Z,25.40
2022-08-16T17:34:00.158Z,25.05
2022-08-16T17:37:09.217Z,25.00
2022-08-16T17:40:37.246Z,25.14
2022-08-16T17:43:44.528Z,25.15
2022-08-16T17:46:52.568Z,25.11
2022-08-16T17:49:58.923Z,25.07
2022-08-16T17:53:03.276Z,25.08
2022-08-16T17:56:07.224Z,25.01
2022-08-16T17:59:11.261Z,24.99
2022-08-16T18:02:44.412Z,24.99
2022-08-16T18:05:40.281Z,25.00
2022-08-16T18:08:44.100Z,24.82
2022-08-16T18:11:49.035Z,24.76
2022-08-16T18:14:54.933Z,24.69
2022-08-16T18:18:02.272Z,24.88
2022-08-16T18:21:25.448Z,24.74
2022-08-16T18:24:30.479Z,24.68
2022-08-16T18:27:34.439Z,24.63
2022-08-16T18:30:38.358Z,24.55
2022-08-16T18:33:43.890Z,24.48
2022-08-16T18:36:49.447Z,24.39
2022-08-16T18:39:53.206Z,24.13
2022-08-16T18:43:00.328Z,24.02
2022-08-16T18:46:04.128Z,24.04
2022-08-16T18:49:08.308Z,24.11
2022-08-16T18:52:25.175Z,24.13
2022-08-16T18:55:33.571Z,24.01
2022-08-16T18:58:39.343Z,23.93
2022-08-16T19:01:43.045Z,23.84
2022-08-16T19:04:55.400Z,23.72
2022-08-16T19:08:05.075Z,23.69
2022-08-16T19:11:14.088Z,23.67
2022-08-16T19:14:18.270Z,23.50
2022-08-16T19:17:22.099Z,23.37
2022-08-16T19:20:29.516Z,23.28
2022-08-16T19:23:37.428Z,23.21
2022-08-16T19:26:42.685Z,23.15
2022-08-16T19:29:49.517Z,23.03
2022-08-16T19:32:53.498Z,22.93
2022-08-16T19:35:57.102Z,22.83
2022-08-16T19:39:05.880Z,22.70
2022-08-16T19:42:18.289Z,22.59
2022-08-16T19:45:23.525Z,22.49
2022-08-16T19:48:27.144Z,22.40
2022-08-16T19:51:31.361Z,22.26
2022-08-16T19:54:40.248Z,22.20
2022-08-16T19:57:46.839Z,22.08
2022-08-16T20:00:52.433Z,22.02
2022-08-16T20:04:00.352Z,21.93
2022-08-16T20:07:03.925Z,21.87
2022-08-16T20:10:13.195Z,21.79
2022-08-16T20:13:21.111Z,21.71
2022-08-16T20:16:25.344Z,21.62
2022-08-16T20:19:35.204Z,21.56
2022-08-16T20:23:00.307Z,21.48
2022-08-16T20:26:05.331Z,21.41
2022-08-16T20:29:08.918Z,21.34
2022-08-16T20:32:17.064Z,21.30
2022-08-16T20:35:24.840Z,21.27
2022-08-16T20:38:28.521Z,21.22
2022-08-16T20:41:33.871Z,21.21
2022-08-16T20:44:37.543Z,21.16
2022-08-16T20:47:41.753Z,21.10
2022-08-16T20:50:45.783Z,21.06
2022-08-16T20:53:49.427Z,20.98
2022-08-16T20:56:54.399Z,20.91
2022-08-16T20:59:58.048Z,20.91
2022-08-16T21:03:03.032Z,20.89
2022-08-16T21:06:07.437Z,20.87
2022-08-16T21:09:13.904Z,20.83
2022-08-16T21:12:18.984Z,20.75
2022-08-16T21:15:34.904Z,20.67
2022-08-16T21:18:38.730Z,20.60
2022-08-16T21:21:42.531Z,20.56
2022-08-16T21:24:47.255Z,20.56
2022-08-16T21:28:39.585Z,20.53
2022-08-16T21:31:19.438Z,20.51
2022-08-16T21:34:23.051Z,20.50
2022-08-16T21:37:26.793Z,20.46
2022-08-16T21:40:34.005Z,20.42
2022-08-16T21:43:39.049Z,20.38
2022-08-16T21:46:42.656Z,20.37
2022-08-16T21:49:46.509Z,20.36
2022-08-16T21:52:51.897Z,20.29
2022-08-16T21:55:58.830Z,20.21
2022-08-16T21:59:10.684Z,20.08
2022-08-16T22:02:17.940Z,19.98
2022-08-16T22:05:21.608Z,19.94
2022-08-16T22:08:25.475Z,19.92
2022-08-16T22:11:29.383Z,19.87
2022-08-16T22:14:34.971Z,19.85
2022-08-16T22:17:38.844Z,19.78
2022-08-16T22:20:43.555Z,19.79
2022-08-16T22:23:56.942Z,19.78
2022-08-16T22:27:01.992Z,19.71
2022-08-16T22:30:08.927Z,19.63
2022-08-16T22:33:16.048Z,19.52
2022-08-16T22:36:19.998Z,19.45
2022-08-16T22:39:23.929Z,19.27
2022-08-16T22:42:30.033Z,19.16
2022-08-16T22:45:36.106Z,19.08
2022-08-16T22:48:42.620Z,19.02
2022-08-16T22:51:47.062Z,18.93
2022-08-16T22:54:50.646Z,18.87
2022-08-16T22:57:55.596Z,18.82
2022-08-16T23:01:00.824Z,18.78
2022-08-16T23:04:05.313Z,18.77
2022-08-16T23:07:08.936Z,18.76
2022-08-16T23:10:12.518Z,18.61
2022-08-16T23:13:18.620Z,18.50
2022-08-16T23:16:32.769Z,18.48
2022-08-16T23:19:37.774Z,18.43
2022-08-16T23:23:21.172Z,18.43
2022-08-16T23:26:44.187Z,18.37
2022-08-16T23:29:34.012Z,18.31
2022-08-16T23:32:46.543Z,18.28
2022-08-16T23:35:54.520Z,18.29
2022-08-16T23:38:59.424Z,18.23
2022-08-16T23:42:03.086Z,18.21
2022-08-16T23:45:08.035Z,18.15
2022-08-16T23:48:16.418Z,18.14
2022-08-16T23:51:20.012Z,18.14
2022-08-16T23:54:23.809Z,18.15
2022-08-16T23:57:27.494Z,18.10
